Time;durP1;ratioP1;P1;durP2;ratioP2;P2;SDS_P1;SDS_P2;PMS_P1;PMS_P2;Temp;Humidity;BMP_temperature;BMP_pressure;BME280_temperature;BME280_humidity;BME280_pressure;Samples;Min_cycle;Max_cycle;Signal;HPM_P1;HPM_P2
2023/09/08 00:00:04;;;;;;;397.75;354.15;;;;;;;23.20;66.73;99984.13;348746;28;1631;-76
2023/09/08 00:00:15;;;;;;;406.77;362.90;;;;;;;23.20;66.36;99994.81;347217;28;1462;-76
2023/09/08 00:00:25;;;;;;;407.60;363.73;;;;;;;23.21;66.18;99988.47;347279;28;1188;-76
2023/09/08 00:00:35;;;;;;;403.85;360.13;;;;;;;23.19;65.77;99985.09;347557;28;1311;-78
2023/09/08 00:00:47;;;;;;;400.23;356.63;;;;;;;23.16;65.30;99991.56;349821;28;931;-77
2023/09/08 00:00:57;;;;;;;403.30;359.50;;;;;;;23.16;65.78;99990.72;348594;28;953;-77
2023/09/08 00:01:08;;;;;;;400.85;357.20;;;;;;;23.16;65.86;99996.03;347417;28;1406;-77
2023/09/08 00:01:19;;;;;;;402.17;358.60;;;;;;;23.16;65.49;99985.38;348594;28;1359;-77
2023/09/08 00:01:29;;;;;;;402.25;358.73;;;;;;;23.17;65.82;99989.72;348975;28;891;-76
2023/09/08 00:01:40;;;;;;;403.70;360.10;;;;;;;23.17;65.97;99993.25;348060;28;905;-76
2023/09/08 00:01:50;;;;;;;405.10;361.47;;;;;;;23.18;66.06;99994.09;348736;28;1220;-76
2023/09/08 00:02:00;;;;;;;410.92;367.15;;;;;;;23.18;65.84;99988.75;348606;28;1245;-76
2023/09/08 00:02:11;;;;;;;408.17;364.30;;;;;;;23.19;65.84;99990.44;348954;28;1231;-76
2023/09/08 00:02:21;;;;;;;404.38;360.63;;;;;;;23.18;65.84;99994.94;348771;28;1446;-76
2023/09/08 00:02:32;;;;;;;408.30;364.47;;;;;;;23.18;65.59;99994.09;347251;28;1208;-77
2023/09/08 00:02:42;;;;;;;406.63;363.03;;;;;;;23.16;65.33;99988.88;348672;28;1332;-77
2023/09/08 00:02:52;;;;;;;408.70;364.90;;;;;;;23.16;65.48;99990.72;348264;28;1552;-77
2023/09/08 00:03:03;;;;;;;406.30;362.43;;;;;;;23.17;65.64;99992.41;348653;28;848;-77
2023/09/08 00:03:13;;;;;;;409.13;365.00;;;;;;;23.18;65.43;99991.41;346657;28;1370;-77
2023/09/08 00:03:24;;;;;;;410.23;366.00;;;;;;;23.17;65.53;99987.06;344591;28;1270;-77
2023/09/08 00:03:34;;;;;;;403.90;359.93;;;;;;;23.17;65.76;99995.06;343457;28;1019;-77
2023/09/08 00:03:45;;;;;;;403.67;359.90;;;;;;;23.17;65.96;99995.91;346472;28;820;-77
2023/09/08 00:03:55;;;;;;;405.83;361.90;;;;;;;23.18;66.05;99994.09;346019;28;741;-77
2023/09/08 00:04:06;;;;;;;408.23;364.27;;;;;;;23.16;65.75;99988.88;350177;28;1392;-77
2023/09/08 00:04:16;;;;;;;404.13;360.23;;;;;;;23.17;66.03;99987.06;348875;28;1384;-76
2023/09/08 00:04:27;;;;;;;407.13;363.23;;;;;;;23.17;65.84;99987.06;346484;28;1256;-77
2023/09/08 00:04:37;;;;;;;405.85;362.10;;;;;;;23.17;65.58;99987.06;348868;28;946;-77
2023/09/08 00:04:47;;;;;;;409.47;365.63;;;;;;;23.18;65.79;99999.44;348973;28;1107;-77
2023/09/08 00:04:58;;;;;;;410.63;366.90;;;;;;;23.18;65.89;99991.41;347880;28;1001;-77
2023/09/08 00:05:08;;;;;;;410.33;366.57;;;;;;;23.18;66.24;99989.59;346066;28;1482;-77
2023/09/08 00:05:19;;;;;;;414.60;370.60;;;;;;;23.19;66.58;99995.78;344614;28;1203;-77
2023/09/08 00:05:29;;;;;;;411.50;367.45;;;;;;;23.19;67.03;99990.44;345756;28;1269;-77
2023/09/08 00:05:40;;;;;;;409.30;365.40;;;;;;;23.20;66.98;99989.47;342122;28;1209;-77
2023/09/08 00:05:50;;;;;;;408.83;364.95;;;;;;;23.20;66.78;99992.13;343367;28;911;-77
2023/09/08 00:06:00;;;;;;;409.17;365.13;;;;;;;23.20;66.87;99989.47;341942;28;1229;-77
2023/09/08 00:06:11;;;;;;;407.57;363.43;;;;;;;23.21;66.91;99986.66;340672;29;958;-77
2023/09/08 00:06:21;;;;;;;404.43;360.63;;;;;;;23.21;66.89;99989.34;339303;29;1342;-77
2023/09/08 00:06:31;;;;;;;404.77;360.87;;;;;;;23.19;67.05;99991.28;337301;29;1223;-77
2023/09/08 00:06:42;;;;;;;406.60;362.67;;;;;;;23.21;67.38;99993.81;337926;28;1291;-77
2023/09/08 00:06:52;;;;;;;408.63;364.67;;;;;;;23.19;67.58;99993.13;338452;29;1368;-76
2023/09/08 00:07:04;;;;;;;411.75;367.88;;;;;;;23.18;67.76;99994.09;343912;28;1541;-77
2023/09/08 00:07:14;;;;;;;420.73;376.63;;;;;;;23.16;68.00;99980.03;343052;28;1300;-77
2023/09/08 00:07:24;;;;;;;427.67;383.20;;;;;;;23.14;68.74;99987.31;339578;28;1706;-77
2023/09/08 00:07:35;;;;;;;429.42;385.00;;;;;;;23.11;68.87;99987.59;342133;28;837;-77
2023/09/08 00:07:45;;;;;;;429.50;384.93;;;;;;;23.10;69.37;99985.91;338791;28;1757;-77
2023/09/08 00:07:56;;;;;;;429.48;384.98;;;;;;;23.10;69.34;99991.25;336989;29;1294;-77
2023/09/08 00:08:06;;;;;;;426.77;382.27;;;;;;;23.10;70.20;99988.56;340755;29;908;-77
2023/09/08 00:08:17;;;;;;;421.23;377.03;;;;;;;23.10;69.93;99985.91;342434;28;783;-77
2023/09/08 00:08:27;;;;;;;409.65;365.70;;;;;;;23.10;70.23;99985.91;341846;28;1476;-77
2023/09/08 00:08:37;;;;;;;400.37;356.67;;;;;;;23.10;70.05;99985.91;336843;29;1210;-77
2023/09/08 00:08:48;;;;;;;392.57;347.97;;;;;;;23.10;70.33;99977.88;339221;29;1380;-77
2023/09/08 00:08:58;;;;;;;390.90;342.87;;;;;;;23.10;71.06;99992.09;336996;28;1605;-77
2023/09/08 00:09:09;;;;;;;387.42;337.40;;;;;;;23.10;71.03;99984.06;334178;29;1923;-76
2023/09/08 00:09:19;;;;;;;387.40;338.13;;;;;;;23.09;71.11;99985.06;331625;29;1217;-76
2023/09/08 00:09:29;;;;;;;388.83;339.00;;;;;;;23.10;71.21;99981.41;332314;29;2046;-76
2023/09/08 00:09:40;;;;;;;389.97;338.80;;;;;;;23.10;71.31;99989.41;330333;29;2331;-76
2023/09/08 00:09:50;;;;;;;390.63;339.43;;;;;;;23.11;71.59;99987.59;330295;29;1231;-76
2023/09/08 00:10:01;;;;;;;394.20;336.33;;;;;;;23.12;71.74;99982.13;328865;29;1709;-76
2023/09/08 00:10:11;;;;;;;394.77;336.93;;;;;;;23.12;71.49;99983.94;330488;29;875;-76
2023/09/08 00:10:22;;;;;;;391.80;332.15;;;;;;;23.13;71.73;99985.63;331671;29;878;-76
2023/09/08 00:10:32;;;;;;;388.20;331.38;;;;;;;23.11;72.04;99987.59;330339;29;1470;-76
2023/09/08 00:10:43;;;;;;;387.60;329.20;;;;;;;23.11;72.50;99985.75;329896;29;1900;-76
2023/09/08 00:10:53;;;;;;;389.20;329.27;;;;;;;23.05;72.47;99983.63;332845;29;1188;-76
2023/09/08 00:11:04;;;;;;;388.10;329.40;;;;;;;23.04;73.05;99984.59;333802;29;1966;-78
2023/09/08 00:11:15;;;;;;;388.10;331.70;;;;;;;23.04;73.37;99981.09;329204;29;2424;-77
2023/09/08 00:11:25;;;;;;;387.95;330.67;;;;;;;23.03;74.01;99979.41;327000;29;2601;-79
2023/09/08 00:11:36;;;;;;;390.33;332.87;;;;;;;23.03;74.38;99984.72;329015;30;1463;-77
2023/09/08 00:11:46;;;;;;;390.58;331.88;;;;;;;23.04;74.38;99986.44;329991;29;2636;-76
2023/09/08 00:11:57;;;;;;;388.70;333.40;;;;;;;23.04;74.65;99986.44;327718;30;2661;-77
2023/09/08 00:12:07;;;;;;;387.13;335.48;;;;;;;23.05;74.82;99985.44;328570;30;839;-74
2023/09/08 00:12:17;;;;;;;385.70;335.30;;;;;;;23.02;75.29;99991.06;326065;30;1767;-78
2023/09/08 00:12:28;;;;;;;387.57;333.23;;;;;;;22.99;75.52;99989.50;326153;30;1656;-77
2023/09/08 00:12:38;;;;;;;388.95;334.10;;;;;;;23.00;75.33;99985.00;325627;30;1057;-77
2023/09/08 00:12:49;;;;;;;390.97;333.90;;;;;;;23.01;75.32;99984.03;324269;30;903;-77
2023/09/08 00:12:59;;;;;;;390.80;335.97;;;;;;;23.02;75.13;99985.72;322411;30;2351;-77
2023/09/08 00:13:10;;;;;;;390.03;334.37;;;;;;;23.02;75.50;99983.03;321320;30;2639;-77
2023/09/08 00:13:20;;;;;;;390.52;336.08;;;;;;;23.02;75.80;99989.22;321915;30;822;-77
2023/09/08 00:13:31;;;;;;;391.77;337.73;;;;;;;23.03;75.85;99980.25;319033;30;2688;-77
2023/09/08 00:13:41;;;;;;;391.95;337.40;;;;;;;23.04;75.69;99984.59;316486;31;3095;-77
2023/09/08 00:13:52;;;;;;;390.83;335.57;;;;;;;23.05;75.71;99988.13;315015;31;814;-77
2023/09/08 00:14:03;;;;;;;389.65;332.48;;;;;;;23.06;75.63;99979.13;313100;31;3012;-76
2023/09/08 00:14:13;;;;;;;391.00;333.52;;;;;;;23.07;75.65;99987.00;315222;31;3156;-76
2023/09/08 00:14:24;;;;;;;391.40;332.58;;;;;;;23.08;76.06;99982.50;315654;31;2400;-76
2023/09/08 00:14:34;;;;;;;388.70;328.60;;;;;;;23.09;76.13;99978.88;316052;31;1271;-76
2023/09/08 00:14:45;;;;;;;387.48;330.33;;;;;;;23.08;75.91;99983.34;316537;31;2174;-76
2023/09/08 00:14:55;;;;;;;386.73;327.90;;;;;;;23.09;76.41;99984.22;313156;31;2917;-76
2023/09/08 00:15:06;;;;;;;388.63;335.60;;;;;;;23.10;76.25;99985.91;310633;31;1394;-76
2023/09/08 00:15:17;;;;;;;393.83;342.25;;;;;;;23.10;76.18;99980.56;311638;31;3488;-77
2023/09/08 00:15:27;;;;;;;392.17;340.42;;;;;;;23.10;76.11;99986.75;308566;31;4188;-77
2023/09/08 00:15:38;;;;;;;391.40;333.77;;;;;;;23.10;76.32;99983.22;308380;32;1124;-77
2023/09/08 00:15:48;;;;;;;387.35;327.42;;;;;;;23.10;76.27;99984.06;306253;32;4196;-77
2023/09/08 00:15:58;;;;;;;388.87;332.27;;;;;;;23.11;76.79;99990.25;303634;32;3994;-76
2023/09/08 00:16:10;;;;;;;389.05;336.45;;;;;;;23.11;76.56;99983.09;301642;32;3944;-76
2023/09/08 00:16:20;;;;;;;388.75;339.02;;;;;;;23.11;76.71;99988.44;302098;32;928;-76
2023/09/08 00:16:30;;;;;;;386.20;330.73;;;;;;;23.11;76.95;99984.91;301812;32;4152;-76
2023/09/08 00:16:42;;;;;;;385.43;328.90;;;;;;;23.10;76.84;99980.56;303270;32;3371;-76
2023/09/08 00:16:56;;;;;;;387.35;330.15;;;;;;;23.09;76.99;99979.72;305001;32;1356;-77
2023/09/08 00:17:06;;;;;;;389.23;333.05;;;;;;;23.10;76.70;99988.56;300040;32;1342;-77
2023/09/08 00:17:16;;;;;;;390.10;332.10;;;;;;;23.09;76.74;99982.38;301733;32;4325;-77
2023/09/08 00:17:27;;;;;;;387.00;328.37;;;;;;;23.10;76.57;99985.91;302326;32;5077;-77
2023/09/08 00:17:37;;;;;;;389.93;334.93;;;;;;;23.09;77.04;99989.53;301960;32;1185;-77
2023/09/08 00:17:48;;;;;;;389.83;338.23;;;;;;;23.09;76.51;99989.53;295846;32;5675;-77
2023/09/08 00:17:59;;;;;;;390.33;337.67;;;;;;;23.07;77.07;99980.81;294675;33;4986;-77
2023/09/08 00:18:09;;;;;;;389.33;333.88;;;;;;;23.04;77.13;99989.94;294607;33;5248;-77
2023/09/08 00:18:20;;;;;;;389.33;331.38;;;;;;;23.04;77.49;99986.44;295885;33;1224;-76
2023/09/08 00:18:31;;;;;;;391.40;337.95;;;;;;;23.03;77.44;99980.25;294065;33;5312;-77
2023/09/08 00:18:41;;;;;;;392.13;343.10;;;;;;;23.03;77.51;99979.41;294103;33;5714;-77
2023/09/08 00:18:51;;;;;;;393.13;342.48;;;;;;;23.04;77.29;99989.94;291935;33;895;-77
2023/09/08 00:19:02;;;;;;;395.67;347.53;;;;;;;23.02;77.28;99986.56;290089;33;4913;-77
2023/09/08 00:19:12;;;;;;;393.05;340.83;;;;;;;23.02;77.46;99985.72;290586;33;5129;-77
2023/09/08 00:19:23;;;;;;;393.23;344.03;;;;;;;23.02;77.44;99978.53;292912;33;1236;-77
2023/09/08 00:19:34;;;;;;;391.73;344.70;;;;;;;23.03;77.56;99984.72;289766;33;6421;-77
2023/09/08 00:19:44;;;;;;;393.43;349.10;;;;;;;23.04;77.73;99981.09;287645;34;7095;-77
2023/09/08 00:19:56;;;;;;;393.03;344.00;;;;;;;23.03;77.63;99984.72;284634;34;7774;-76
2023/09/08 00:20:09;;;;;;;392.13;339.40;;;;;;;23.04;77.23;99984.59;284941;34;850;-77
2023/09/08 00:20:20;;;;;;;388.15;332.92;;;;;;;23.05;77.40;99988.13;280712;35;1315;-77
2023/09/08 00:20:30;;;;;;;388.90;335.25;;;;;;;23.07;77.20;99986.16;279046;35;7623;-78
2023/09/08 00:20:41;;;;;;;391.10;337.20;;;;;;;23.07;77.73;99986.16;277494;35;7783;-78
2023/09/08 00:20:52;;;;;;;392.16;340.92;;;;;;;23.08;77.49;99987.84;278832;35;1375;-77
2023/09/08 00:21:02;;;;;;;390.07;336.73;;;;;;;23.08;77.65;99990.53;276151;35;8665;-77
2023/09/08 00:23:02;;;;;;;314.73;262.55;;;;;;;22.93;78.40;99990.06;2502289;27;20703;-77
2023/09/08 00:23:12;;;;;;;390.57;334.40;;;;;;;22.94;78.42;99991.75;352998;28;893;-77
2023/09/08 00:23:22;;;;;;;390.10;338.17;;;;;;;22.94;78.33;99990.91;350063;28;1300;-77
2023/09/08 00:23:33;;;;;;;390.77;334.88;;;;;;;22.92;78.17;99993.69;348716;28;1359;-77
2023/09/08 00:23:43;;;;;;;390.67;334.70;;;;;;;22.93;78.37;99989.19;348074;28;1868;-77
2023/09/08 00:23:54;;;;;;;388.98;328.02;;;;;;;22.94;78.41;99985.56;345904;28;1132;-77
2023/09/08 00:24:05;;;;;;;388.17;331.53;;;;;;;22.94;78.01;99982.88;347388;28;1472;-76
2023/09/08 00:24:15;;;;;;;385.75;329.25;;;;;;;22.95;78.10;99984.56;347514;28;1005;-77
2023/09/08 00:24:26;;;;;;;388.27;329.48;;;;;;;22.95;78.12;99992.59;345947;28;1230;-76
2023/09/08 00:24:36;;;;;;;390.13;331.43;;;;;;;22.95;78.39;99993.44;345978;28;1247;-77
2023/09/08 00:24:46;;;;;;;391.85;333.15;;;;;;;22.95;78.34;99989.91;346035;28;1316;-76
2023/09/08 00:24:57;;;;;;;389.67;333.10;;;;;;;22.96;78.34;99994.28;349497;28;1045;-76
2023/09/08 00:25:07;;;;;;;389.83;331.00;;;;;;;22.96;78.21;99988.94;348674;28;1230;-77
2023/09/08 00:25:18;;;;;;;389.73;333.23;;;;;;;22.96;78.14;99987.09;348086;28;821;-77
2023/09/08 00:25:28;;;;;;;389.58;335.90;;;;;;;22.94;78.35;99986.41;347391;28;1213;-77
2023/09/08 00:25:39;;;;;;;390.47;342.40;;;;;;;22.91;78.63;99985.81;346011;28;896;-77
2023/09/08 00:25:50;;;;;;;391.00;342.85;;;;;;;22.91;78.67;99988.50;347354;28;1421;-77
2023/09/08 00:26:01;;;;;;;389.70;336.60;;;;;;;22.91;78.53;99988.50;347388;28;982;-77
2023/09/08 00:26:11;;;;;;;388.43;333.67;;;;;;;22.91;78.84;99989.34;347490;28;907;-77
2023/09/08 00:26:21;;;;;;;390.40;332.08;;;;;;;22.92;79.02;99992.84;345975;28;1211;-77
2023/09/08 00:26:32;;;;;;;393.40;337.37;;;;;;;22.92;78.73;99987.50;347548;28;1278;-77
2023/09/08 00:26:42;;;;;;;395.15;338.70;;;;;;;22.93;78.85;99983.88;344521;28;1272;-77
2023/09/08 00:26:53;;;;;;;394.07;342.33;;;;;;;22.93;78.89;99984.72;345825;28;1122;-77
2023/09/08 00:27:03;;;;;;;392.48;336.60;;;;;;;22.95;78.48;99982.75;346067;28;1209;-77
2023/09/08 00:27:14;;;;;;;390.37;334.20;;;;;;;22.97;78.70;99985.25;347395;28;1263;-77
2023/09/08 00:27:24;;;;;;;387.90;330.58;;;;;;;22.96;78.74;99983.59;347365;28;1083;-77
2023/09/08 00:27:35;;;;;;;387.10;330.43;;;;;;;22.96;78.71;99983.59;347474;28;942;-77
2023/09/08 00:27:45;;;;;;;388.00;336.45;;;;;;;22.97;78.73;99990.59;346100;28;924;-77
2023/09/08 00:27:55;;;;;;;392.57;344.93;;;;;;;22.98;78.63;99989.63;346199;28;1632;-77
2023/09/08 00:28:06;;;;;;;392.02;346.55;;;;;;;22.97;78.70;99985.25;346247;28;1033;-77
2023/09/08 00:28:17;;;;;;;391.00;338.57;;;;;;;22.97;78.71;99991.44;344665;28;1309;-77
2023/09/08 00:28:27;;;;;;;386.42;330.60;;;;;;;22.97;78.71;99987.94;345122;28;938;-77
2023/09/08 00:28:37;;;;;;;388.40;330.33;;;;;;;22.96;78.99;99986.28;345138;28;1363;-77
2023/09/08 00:28:48;;;;;;;387.23;330.17;;;;;;;22.96;79.22;99983.59;346042;28;824;-77
2023/09/08 00:28:58;;;;;;;390.37;334.70;;;;;;;22.97;79.02;99990.59;342753;28;1225;-77
2023/09/08 00:29:09;;;;;;;388.53;334.83;;;;;;;22.93;79.38;99983.88;342849;28;962;-77
2023/09/08 00:29:19;;;;;;;393.20;347.75;;;;;;;22.92;79.58;99987.50;339360;29;1335;-77
2023/09/08 00:29:29;;;;;;;395.87;349.83;;;;;;;22.92;79.60;99985.69;345459;28;1293;-77
2023/09/08 00:29:40;;;;;;;397.58;352.98;;;;;;;22.93;79.20;99995.38;341970;28;1301;-77
2023/09/08 00:29:50;;;;;;;395.07;345.33;;;;;;;22.93;79.40;99991.88;340664;29;862;-77
2023/09/08 00:30:01;;;;;;;394.05;350.23;;;;;;;22.92;79.43;99988.34;342324;28;1517;-77
2023/09/08 00:30:12;;;;;;;393.42;349.35;;;;;;;22.94;79.62;99988.22;341454;28;1487;-77
2023/09/08 00:30:23;;;;;;;391.50;346.15;;;;;;;22.95;79.43;99989.91;343050;28;1568;-77
2023/09/08 00:30:33;;;;;;;392.17;344.17;;;;;;;22.94;80.01;99980.22;345036;28;1368;-77
2023/09/08 00:30:43;;;;;;;390.13;335.53;;;;;;;22.95;79.86;99981.91;342994;28;1055;-77
2023/09/08 00:30:54;;;;;;;390.30;336.85;;;;;;;22.95;79.69;99992.59;339779;28;1324;-77
2023/09/08 00:31:04;;;;;;;391.03;339.07;;;;;;;22.94;79.53;99988.22;337951;29;1231;-77
2023/09/08 00:31:15;;;;;;;390.83;343.35;;;;;;;22.95;79.75;99988.09;340102;28;1394;-77
2023/09/08 00:31:25;;;;;;;389.50;338.07;;;;;;;22.95;79.69;99989.91;341142;28;1377;-77
2023/09/08 00:31:36;;;;;;;385.52;328.05;;;;;;;22.95;79.90;99993.44;339155;29;1669;-77
2023/09/08 00:31:46;;;;;;;387.83;332.20;;;;;;;22.95;79.69;99985.44;335502;29;1192;-77
2023/09/08 00:31:56;;;;;;;390.23;337.38;;;;;;;22.96;79.84;99984.41;337672;29;1289;-77
2023/09/08 00:32:07;;;;;;;391.23;340.30;;;;;;;22.97;80.20;99990.59;339251;29;1190;-77
2023/09/08 00:32:17;;;;;;;390.97;337.60;;;;;;;22.97;80.25;99990.59;336918;29;830;-77
2023/09/08 00:32:28;;;;;;;390.33;337.63;;;;;;;22.97;80.06;99991.44;337109;29;1339;-77
2023/09/08 00:32:38;;;;;;;390.40;338.07;;;;;;;22.98;80.19;99989.63;336952;29;1199;-77
2023/09/08 00:32:48;;;;;;;391.13;343.38;;;;;;;22.98;79.97;99986.94;335568;29;885;-77
2023/09/08 00:32:59;;;;;;;391.17;343.40;;;;;;;22.98;80.13;99986.94;335299;29;1427;-78
2023/09/08 00:33:11;;;;;;;392.23;346.42;;;;;;;22.98;79.90;99993.13;335835;29;1678;-77
2023/09/08 00:33:22;;;;;;;393.08;344.63;;;;;;;22.98;80.15;99987.81;335925;28;1906;-77
2023/09/08 00:33:32;;;;;;;395.75;349.83;;;;;;;22.99;79.89;99988.66;340720;29;1226;-77
2023/09/08 00:33:43;;;;;;;394.17;348.73;;;;;;;22.99;80.04;99985.97;337722;29;2034;-77
2023/09/08 00:33:54;;;;;;;391.70;345.60;;;;;;;23.00;80.34;99990.34;336819;28;2196;-77
2023/09/08 00:34:05;;;;;;;391.15;343.75;;;;;;;22.99;80.38;99983.31;339419;29;916;-77
2023/09/08 00:34:15;;;;;;;390.35;340.48;;;;;;;23.00;80.53;99990.34;339233;29;1717;-77
2023/09/08 00:34:26;;;;;;;391.60;347.23;;;;;;;23.00;80.64;99987.66;336569;29;1338;-77
2023/09/08 00:34:36;;;;;;;395.15;351.48;;;;;;;23.00;80.48;99990.34;336700;29;1071;-77
2023/09/08 00:34:46;;;;;;;394.57;350.93;;;;;;;23.00;80.62;99993.00;331815;29;1222;-77
2023/09/08 00:34:57;;;;;;;391.67;347.97;;;;;;;22.99;80.58;99985.97;331361;29;1791;-77
2023/09/08 00:35:08;;;;;;;392.92;342.27;;;;;;;23.00;80.33;99995.69;330604;29;2028;-77
2023/09/08 00:35:19;;;;;;;394.33;345.73;;;;;;;22.99;80.65;99985.97;327644;30;1475;-77
2023/09/08 00:35:29;;;;;;;394.65;344.23;;;;;;;22.99;81.02;99983.31;326809;30;2557;-77
2023/09/08 00:35:40;;;;;;;393.63;345.57;;;;;;;22.99;80.67;99984.16;327703;29;2474;-77
2023/09/08 00:35:50;;;;;;;392.10;344.25;;;;;;;23.00;80.61;99987.66;326675;30;1487;-77
2023/09/08 00:36:00;;;;;;;390.17;342.23;;;;;;;22.99;80.44;99984.16;321934;30;1758;-77
2023/09/08 00:36:11;;;;;;;389.77;341.55;;;;;;;23.00;80.43;99990.34;322775;30;2774;-77
2023/09/08 00:36:21;;;;;;;389.90;338.87;;;;;;;23.00;80.53;99990.34;322915;30;1647;-77
2023/09/08 00:36:32;;;;;;;392.08;345.25;;;;;;;23.00;80.75;99991.19;321836;30;1293;-77
2023/09/08 00:36:42;;;;;;;392.63;347.93;;;;;;;22.99;80.50;99984.16;321053;30;1354;-77
2023/09/08 00:36:53;;;;;;;397.00;353.27;;;;;;;22.99;80.47;99983.31;320328;30;2122;-77
2023/09/08 00:37:07;;;;;;;392.27;348.00;;;;;;;22.97;80.63;99987.94;318483;31;1648;-77
2023/09/08 00:37:17;;;;;;;390.92;340.60;;;;;;;22.97;80.69;99986.09;318495;31;988;-77
2023/09/08 00:37:28;;;;;;;393.05;343.27;;;;;;;22.95;80.90;99987.25;312347;31;2829;-77
2023/09/08 00:37:40;;;;;;;395.30;348.83;;;;;;;22.95;81.11;99984.56;309218;31;3322;-77
2023/09/08 00:37:50;;;;;;;396.83;352.83;;;;;;;22.93;81.38;99984.72;309560;31;963;-77
2023/09/08 00:38:01;;;;;;;396.83;353.05;;;;;;;22.93;81.01;99992.72;306917;32;4578;-76
2023/09/08 00:38:11;;;;;;;398.77;354.97;;;;;;;22.92;80.82;99983.03;305847;32;3712;-76
2023/09/08 00:38:21;;;;;;;397.23;353.43;;;;;;;22.93;80.82;99989.19;303956;32;3400;-76
2023/09/08 00:38:32;;;;;;;393.25;347.83;;;;;;;22.92;81.05;99985.69;303583;32;1346;-76
2023/09/08 00:38:42;;;;;;;393.33;346.83;;;;;;;22.92;81.10;99991.03;304375;32;2536;-76
2023/09/08 00:38:52;;;;;;;396.75;352.95;;;;;;;22.93;80.99;99986.53;303767;32;2383;-76
2023/09/08 00:39:03;;;;;;;395.80;352.07;;;;;;;22.94;80.89;99986.41;304650;32;1382;-76
2023/09/08 00:39:13;;;;;;;397.67;353.70;;;;;;;22.92;80.88;99988.34;301677;32;3142;-76
2023/09/08 00:39:24;;;;;;;395.43;350.40;;;;;;;22.94;80.81;99988.22;299843;32;3622;-76
2023/09/08 00:39:35;;;;;;;395.60;348.37;;;;;;;22.93;80.99;99982.03;300089;32;1354;-76
2023/09/08 00:39:46;;;;;;;393.27;344.83;;;;;;;22.93;80.89;99989.19;297031;33;918;-76
2023/09/08 00:39:56;;;;;;;394.75;349.58;;;;;;;22.93;80.90;99991.88;296728;33;4429;-76
2023/09/08 00:40:10;;;;;;;400.17;353.37;;;;;;;22.93;80.98;99989.19;295362;32;4639;-76
2023/09/08 00:40:21;;;;;;;397.60;349.83;;;;;;;22.93;80.84;99989.19;294857;33;1331;-76
2023/09/08 00:40:32;;;;;;;393.27;344.77;;;;;;;22.93;80.92;99989.19;293114;33;870;-76
2023/09/08 00:40:42;;;;;;;393.35;347.75;;;;;;;22.91;81.25;99981.31;291802;33;4817;-77
2023/09/08 00:40:53;;;;;;;398.50;349.70;;;;;;;22.92;80.93;99990.19;291493;33;3556;-77
2023/09/08 00:41:06;;;;;;;399.58;353.02;;;;;;;22.90;80.88;99984.97;292224;33;1226;-76
2023/09/08 00:41:17;;;;;;;398.42;348.02;;;;;;;22.90;80.92;99992.97;287315;34;1489;-76
2023/09/08 00:41:27;;;;;;;393.23;344.53;;;;;;;22.89;81.31;99994.81;288834;34;4335;-76
2023/09/08 00:41:37;;;;;;;394.67;345.70;;;;;;;22.88;81.15;99990.44;286993;34;5184;-76
2023/09/08 00:41:48;;;;;;;392.57;344.13;;;;;;;22.86;81.35;99984.38;287144;34;1501;-77
2023/09/08 00:41:58;;;;;;;396.63;352.60;;;;;;;22.85;81.04;99984.53;285323;34;5749;-76
2023/09/08 00:42:09;;;;;;;395.43;350.43;;;;;;;22.85;81.34;99985.38;284241;34;5896;-76
2023/09/08 00:42:19;;;;;;;398.40;354.33;;;;;;;22.86;81.19;99988.88;286278;34;1259;-77
2023/09/08 00:42:29;;;;;;;393.93;346.87;;;;;;;22.85;81.35;99988.03;287878;34;5769;-77
2023/09/08 00:42:40;;;;;;;398.83;354.83;;;;;;;22.86;81.09;99988.88;288007;33;6031;-76
2023/09/08 00:42:50;;;;;;;406.17;361.63;;;;;;;22.86;81.30;99992.41;288331;34;848;-76
2023/09/08 00:43:00;;;;;;;412.17;367.40;;;;;;;22.87;80.91;99990.56;283837;34;7124;-76
2023/09/08 00:43:11;;;;;;;403.33;358.92;;;;;;;22.87;81.40;99991.41;281637;34;4732;-76
2023/09/08 00:43:21;;;;;;;398.70;354.73;;;;;;;22.87;81.27;99986.09;278198;34;5025;-76
2023/09/08 00:43:32;;;;;;;394.90;350.63;;;;;;;22.88;81.21;99992.25;280054;35;873;-76
2023/09/08 00:43:43;;;;;;;395.73;348.20;;;;;;;22.88;81.14;99982.44;280140;35;6356;-76
2023/09/08 00:43:53;;;;;;;395.58;345.63;;;;;;;22.88;81.01;99987.78;279143;35;8708;-76
2023/09/08 00:44:04;;;;;;;396.17;347.27;;;;;;;22.89;81.22;99984.13;278948;35;1760;-76
2023/09/08 00:44:15;;;;;;;400.63;356.27;;;;;;;22.89;81.13;99989.47;279999;34;8516;-76
2023/09/08 00:44:25;;;;;;;401.17;356.85;;;;;;;22.89;81.13;99989.47;276435;35;7579;-76
2023/09/08 00:44:36;;;;;;;400.30;356.17;;;;;;;22.89;81.23;99981.47;274507;36;1546;-76
2023/09/08 00:44:46;;;;;;;394.48;348.45;;;;;;;22.90;80.94;99982.31;273846;36;1516;-76
2023/09/08 00:44:57;;;;;;;393.60;347.37;;;;;;;22.89;81.17;99989.47;273783;35;7952;-76
2023/09/08 00:45:08;;;;;;;394.88;347.55;;;;;;;22.91;81.15;99991.16;273965;35;7617;-76
2023/09/08 00:45:18;;;;;;;399.27;355.30;;;;;;;22.89;81.40;99989.47;273768;36;1231;-76
2023/09/08 00:46:57;;;;;;;382.62;327.94;;;;;;;22.88;81.66;99985.09;2502144;27;20273;-76
2023/09/08 00:47:08;;;;;;;392.00;347.90;;;;;;;22.87;82.09;99983.41;353100;28;1093;-76
2023/09/08 00:47:18;;;;;;;396.83;353.02;;;;;;;22.88;82.35;99986.94;351630;28;1056;-76
2023/09/08 00:47:29;;;;;;;399.93;356.00;;;;;;;22.87;82.44;99986.09;348800;28;1290;-76
2023/09/08 00:47:39;;;;;;;394.97;351.00;;;;;;;22.87;82.56;99986.09;348841;28;1247;-76
2023/09/08 00:47:49;;;;;;;396.58;349.75;;;;;;;22.88;82.22;99986.94;348677;28;1250;-76
2023/09/08 00:48:00;;;;;;;401.07;354.47;;;;;;;22.87;82.36;99988.75;348556;28;1304;-76
2023/09/08 00:48:10;;;;;;;411.65;366.75;;;;;;;22.86;82.27;99992.41;348768;28;1193;-76
2023/09/08 00:48:21;;;;;;;420.73;375.87;;;;;;;22.87;82.57;99985.22;348780;28;1103;-76
2023/09/08 00:48:31;;;;;;;418.53;373.97;;;;;;;22.86;82.46;99976.38;348858;28;1050;-76
2023/09/08 00:48:41;;;;;;;412.42;368.25;;;;;;;22.86;82.21;99989.72;350096;28;1447;-76
2023/09/08 00:48:52;;;;;;;405.50;361.60;;;;;;;22.85;82.28;99985.38;348547;28;1215;-76
2023/09/08 00:49:03;;;;;;;400.67;356.85;;;;;;;22.86;82.07;99988.88;350571;28;1569;-76
2023/09/08 00:49:13;;;;;;;394.85;348.02;;;;;;;22.85;82.00;99987.19;350239;28;903;-77
2023/09/08 00:49:24;;;;;;;396.60;350.90;;;;;;;22.85;81.95;99988.03;347264;28;851;-77
2023/09/08 00:49:34;;;;;;;406.35;362.08;;;;;;;22.84;81.93;99986.34;348727;28;1222;-77
2023/09/08 00:49:46;;;;;;;412.23;367.87;;;;;;;22.85;82.20;99993.38;345951;28;1204;-77
2023/09/08 00:49:56;;;;;;;405.23;361.00;;;;;;;22.83;82.23;99987.31;347276;28;1323;-76
2023/09/08 00:50:07;;;;;;;404.80;360.43;;;;;;;22.83;82.26;99983.81;348887;28;871;-76
2023/09/08 00:50:17;;;;;;;412.25;367.52;;;;;;;22.83;82.07;99984.66;348463;28;1634;-76
2023/09/08 00:50:28;;;;;;;419.37;374.50;;;;;;;22.83;82.09;99992.66;345956;28;1382;-76
2023/09/08 00:50:38;;;;;;;420.75;376.02;;;;;;;22.83;82.07;99990.00;345572;28;939;-76
2023/09/08 00:50:49;;;;;;;420.43;375.80;;;;;;;22.83;82.56;99990.00;347546;28;1452;-76
2023/09/08 00:50:59;;;;;;;424.23;379.40;;;;;;;22.82;81.92;99988.31;347167;28;1248;-76
2023/09/08 00:51:10;;;;;;;421.70;376.90;;;;;;;22.82;82.54;99988.31;346097;28;924;-76
2023/09/08 00:51:20;;;;;;;419.50;374.75;;;;;;;22.83;82.18;99989.16;346385;28;1322;-76
2023/09/08 00:51:31;;;;;;;409.85;365.45;;;;;;;22.81;82.17;99991.94;346152;28;769;-76
2023/09/08 00:51:41;;;;;;;411.30;367.03;;;;;;;22.81;82.08;99983.94;345291;28;1413;-76
2023/09/08 00:51:52;;;;;;;406.90;363.00;;;;;;;22.79;82.38;99983.22;346054;28;1286;-76
2023/09/08 00:52:02;;;;;;;406.02;362.13;;;;;;;22.80;82.34;99990.25;347406;28;828;-76